Kezdőlap
METAR-TAF:

METAR-TAF

Repülőterek :

New Ulm Municipal Airport

New Ulm, Minnesota, Amerikai Egyesült Államok

földrajzi szélesség: 44-19N, földrajzi hosszúság: 094-30W, magasság: 308 m

Jelenlegi meteorológiai megfigyelések

A jelentés 5 perccel ezelõtt készült, 12:35 UTC
Északkeleti szél 7 kt
Hőmérséklet 25°C
Páratartalom 89%
Légköri nyomás 1016 hPa
Látótávolság: 8.0 km
Szakadozott felhőzet 8500 lábon
zivatar, enyhe esõ

METAR: KULM 281235Z AUTO 04007KT 5SM -TSRA BKN085 25/23 A3000 RMK AO2 LTG DSNT N THRU SE

Idő: 07:40 (12:40 UTC)


TAF: hiányzik

Meteorológiai megfigyelések és előrejelzések több, mint 4000 repülőtéren (METAR és TAF jelentéseket).

A térképen piros és sárga pontok jelzik az elérhető meteorológiai állomásokat.

Mozgassa az egeret a pont fölött, hogy megjelenjen az állomás neve.

Azután kattintson az időjárási megfigyelések és előrejelzések megtekintéséhez.

A térkép megváltoztatása: kattintson a fekete keresztel jelölt zöld gombra ráközelítéshez, a vonallal jelölt zöld gombra távolításhoz, vagy a zöld nyilakra a szomszédos térképek eléréséhez.


METAR-TAF: